Time,TemperatureF,DewpointF,PressureIn,WindDirection,WindDirectionDegrees,WindSpeedMPH,WindSpeedGustMPH,Humidity,HourlyPrecipIn,Conditions,Clouds,dailyrainin,SoftwareType,DateUTC
2013-01-07 00:02:00,27.9,22.5,29.91,SW,225,0.0,0.0,80,0.00,CLR,BKN,0.00,WeatherDisplay:10.37,2013-01-07 05:02:00,
2013-01-07 00:07:00,27.7,22.6,29.91,SW,225,0.0,0.0,81,0.00,CLR,BKN,0.00,WeatherDisplay:10.37,2013-01-07 05:07:00,
2013-01-07 00:12:00,27.7,22.6,29.91,SW,225,0.0,0.0,81,0.00,CLR,BKN,0.00,WeatherDisplay:10.37,2013-01-07 05:12:00,
2013-01-07 00:17:00,27.5,22.4,29.91,SW,225,0.0,0.0,81,0.00,CLR,BKN,0.00,WeatherDisplay:10.37,2013-01-07 05:17:00,
2013-01-07 00:22:00,27.7,22.9,29.91,SW,225,0.0,0.0,82,0.00,CLR,BKN,0.00,WeatherDisplay:10.37,2013-01-07 05:22:00,
2013-01-07 00:27:00,27.7,22.9,29.91,SW,225,0.0,0.0,82,0.00,CLR,BKN,0.00,WeatherDisplay:10.37,2013-01-07 05:27:00,
2013-01-07 00:32:00,28.2,23.7,29.91,SW,225,0.0,0.0,83,0.00,CLR,BKN,0.00,WeatherDisplay:10.37,2013-01-07 05:32:00,
2013-01-07 00:37:00,28.4,23.6,29.91,SW,225,0.0,0.0,82,0.00,CLR,BKN,0.00,WeatherDisplay:10.37,2013-01-07 05:37:00,
2013-01-07 00:42:00,28.6,23.8,29.91,SW,225,0.0,0.0,82,0.00,CLR,BKN,0.00,WeatherDisplay:10.37,2013-01-07 05:42:00,
2013-01-07 00:47:00,28.6,23.5,29.91,SW,225,0.0,0.0,81,0.00,CLR,BKN,0.00,WeatherDisplay:10.37,2013-01-07 05:47:00,
2013-01-07 00:52:00,28.4,23.3,29.94,SW,225,0.0,0.0,81,0.00,CLR,BKN,0.00,WeatherDisplay:10.37,2013-01-07 05:52:00,
2013-01-07 01:02:00,27.9,22.8,29.94,SW,225,0.0,0.0,81,0.00,CLR,BKN,0.00,WeatherDisplay:10.37,2013-01-07 06:02:00,
2013-01-07 01:07:00,27.7,22.6,29.94,SW,225,0.0,0.0,81,0.00,CLR,BKN,0.00,WeatherDisplay:10.37,2013-01-07 06:07:00,
2013-01-07 01:12:00,27.5,22.4,29.94,SW,225,0.0,0.0,81,0.00,CLR,BKN,0.00,WeatherDisplay:10.37,2013-01-07 06:12:00,
2013-01-07 01:17:00,27.3,22.5,29.94,SW,225,0.0,0.0,82,0.00,CLR,BKN,0.00,WeatherDisplay:10.37,2013-01-07 06:17:00,
2013-01-07 01:22:00,27.5,23.0,29.94,SSW,209,0.0,0.0,83,0.00,CLR,BKN,0.00,WeatherDisplay:10.37,2013-01-07 06:22:00,
2013-01-07 01:27:00,27.3,22.8,29.94,SSW,197,0.0,0.0,83,0.00,CLR,BKN,0.00,WeatherDisplay:10.37,2013-01-07 06:27:00,
2013-01-07 01:37:00,27.0,22.2,29.94,South,185,0.0,0.0,82,0.00,CLR,BKN,0.00,WeatherDisplay:10.37,2013-01-07 06:37:00,
2013-01-07 01:47:00,26.8,22.3,29.94,South,185,0.0,0.0,83,0.00,CLR,BKN,0.00,WeatherDisplay:10.37,2013-01-07 06:47:00,
2013-01-07 01:57:00,26.8,22.3,29.94,South,185,0.0,0.0,83,0.00,CLR,BKN,0.00,WeatherDisplay:10.37,2013-01-07 06:57:00,
2013-01-07 02:02:00,26.8,22.3,29.94,South,185,0.0,0.0,83,0.00,CLR,BKN,0.00,WeatherDisplay:10.37,2013-01-07 07:02:00,
2013-01-07 02:07:00,26.8,22.3,29.94,South,185,0.0,0.0,83,0.00,CLR,BKN,0.00,WeatherDisplay:10.37,2013-01-07 07:07:00,
2013-01-07 02:12:00,26.8,22.3,29.94,South,185,0.0,0.0,83,0.00,CLR,BKN,0.00,WeatherDisplay:10.37,2013-01-07 07:12:00,
2013-01-07 02:22:00,27.1,22.9,29.97,South,185,0.0,0.0,84,0.00,CLR,BKN,0.00,WeatherDisplay:10.37,2013-01-07 07:22:00,
2013-01-07 02:32:00,27.5,23.3,29.97,SW,227,0.0,0.0,84,0.00,CLR,BKN,0.00,WeatherDisplay:10.37,2013-01-07 07:32:00,
2013-01-07 02:37:00,27.5,23.3,29.97,WSW,244,0.0,0.0,84,0.00,CLR,BKN,0.00,WeatherDisplay:10.37,2013-01-07 07:37:00,
2013-01-07 02:42:00,27.5,23.3,29.97,WSW,244,0.0,0.0,84,0.00,CLR,BKN,0.00,WeatherDisplay:10.37,2013-01-07 07:42:00,
2013-01-07 02:46:00,27.5,23.3,29.97,WSW,244,0.0,0.0,84,0.00,CLR,BKN,0.00,WeatherDisplay:10.37,2013-01-07 07:46:00,
2013-01-07 02:56:00,27.9,23.7,29.97,WSW,244,0.0,0.0,84,0.00,CLR,BKN,0.00,WeatherDisplay:10.37,2013-01-07 07:56:00,
2013-01-07 03:01:00,27.9,23.7,29.97,WSW,244,0.0,0.0,84,0.00,CLR,BKN,0.00,WeatherDisplay:10.37,2013-01-07 08:01:00,
2013-01-07 03:06:00,28.0,24.1,29.97,WSW,244,0.0,0.0,85,0.00,CLR,BKN,0.00,WeatherDisplay:10.37,2013-01-07 08:06:00,
2013-01-07 03:12:00,28.2,24.3,29.97,WSW,244,0.0,0.0,85,0.00,CLR,BKN,0.00,WeatherDisplay:10.37,2013-01-07 08:12:00,
2013-01-07 03:21:00,28.6,24.6,29.97,WSW,245,0.0,0.0,85,0.00,CLR,BKN,0.00,WeatherDisplay:10.37,2013-01-07 08:21:00,
2013-01-07 03:26:00,28.8,24.8,29.97,WSW,237,0.0,0.0,85,0.00,CLR,BKN,0.00,WeatherDisplay:10.37,2013-01-07 08:26:00,
2013-01-07 03:36:00,28.9,25.0,29.97,SW,218,0.0,0.0,85,0.00,CLR,BKN,0.00,WeatherDisplay:10.37,2013-01-07 08:36:00,
2013-01-07 03:41:00,29.1,25.2,29.97,WSW,245,0.0,0.0,85,0.00,CLR,BKN,0.00,WeatherDisplay:10.37,2013-01-07 08:41:00,
2013-01-07 03:51:00,29.5,25.5,29.97,West,275,1.0,2.0,85,0.00,CLR,BKN,0.00,WeatherDisplay:10.37,2013-01-07 08:51:00,
2013-01-07 04:01:00,29.5,25.2,29.97,South,189,1.0,0.0,84,0.00,CLR,BKN,0.00,WeatherDisplay:10.37,2013-01-07 09:01:00,
2013-01-07 04:06:00,29.5,25.2,29.97,SSE,165,0.0,0.0,84,0.00,CLR,BKN,0.00,WeatherDisplay:10.37,2013-01-07 09:06:00,
2013-01-07 04:11:00,29.5,25.2,29.97,SSE,165,1.0,0.0,84,0.00,CLR,BKN,0.00,WeatherDisplay:10.37,2013-01-07 09:11:00,
2013-01-07 04:16:00,29.3,25.1,29.97,SSE,165,0.0,0.0,84,0.00,CLR,BKN,0.00,WeatherDisplay:10.37,2013-01-07 09:16:00,
2013-01-07 04:21:00,28.9,25.0,29.97,SSE,165,0.0,0.0,85,0.00,CLR,BKN,0.00,WeatherDisplay:10.37,2013-01-07 09:21:00,
2013-01-07 04:26:00,28.9,25.0,29.97,SSE,165,0.0,0.0,85,0.00,CLR,BKN,0.00,WeatherDisplay:10.37,2013-01-07 09:26:00,
2013-01-07 04:31:00,28.9,25.0,30.00,SSE,161,0.0,0.0,85,0.00,CLR,BKN,0.00,WeatherDisplay:10.37,2013-01-07 09:31:00,
2013-01-07 04:41:00,29.1,25.2,30.00,SSE,155,0.0,0.0,85,0.00,CLR,BKN,0.00,WeatherDisplay:10.37,2013-01-07 09:41:00,
2013-01-07 04:51:00,28.9,24.7,30.00,SSE,155,0.0,0.0,84,0.00,CLR,BKN,0.00,WeatherDisplay:10.37,2013-01-07 09:51:00,
2013-01-07 04:56:00,28.8,24.8,30.00,SSE,155,0.0,0.0,85,0.00,CLR,BKN,0.00,WeatherDisplay:10.37,2013-01-07 09:56:00,
2013-01-07 05:01:00,28.4,24.5,30.00,SSE,155,0.0,0.0,85,0.00,CLR,BKN,0.00,WeatherDisplay:10.37,2013-01-07 10:01:00,
2013-01-07 05:06:00,28.4,24.5,30.00,SSE,165,0.0,0.0,85,0.00,CLR,BKN,0.00,WeatherDisplay:10.37,2013-01-07 10:06:00,
2013-01-07 05:11:00,28.2,24.3,30.00,South,173,0.0,0.0,85,0.00,CLR,BKN,0.00,WeatherDisplay:10.37,2013-01-07 10:11:00,
2013-01-07 05:16:00,28.0,24.1,30.00,South,180,0.0,0.0,85,0.00,CLR,BKN,0.00,WeatherDisplay:10.37,2013-01-07 10:16:00,
2013-01-07 05:21:00,27.9,23.9,30.00,South,180,0.0,0.0,85,0.00,CLR,BKN,0.00,WeatherDisplay:10.37,2013-01-07 10:21:00,
2013-01-07 05:26:00,27.9,24.2,30.00,SW,215,0.0,0.0,86,0.00,CLR,BKN,0.00,WeatherDisplay:10.37,2013-01-07 10:26:00,
2013-01-07 05:31:00,28.2,24.6,30.00,West,275,0.0,0.0,86,0.00,CLR,BKN,0.00,WeatherDisplay:10.37,2013-01-07 10:31:00,
2013-01-07 05:41:00,28.8,25.7,30.00,West,277,0.0,0.0,88,0.00,CLR,BKN,0.00,WeatherDisplay:10.37,2013-01-07 10:41:00,
2013-01-07 05:47:00,29.1,25.7,30.03,WNW,290,1.0,6.0,87,0.00,CLR,BKN,0.00,WeatherDisplay:10.37,2013-01-07 10:47:00,
2013-01-07 05:52:00,28.9,25.3,30.03,WNW,290,3.0,6.0,86,0.00,CLR,BKN,0.00,WeatherDisplay:10.37,2013-01-07 10:52:00,
2013-01-07 06:02:00,28.9,25.3,30.03,WNW,290,5.0,6.0,86,0.00,CLR,BKN,0.00,WeatherDisplay:10.37,2013-01-07 11:02:00,
2013-01-07 06:12:00,28.9,25.3,30.03,WNW,290,5.0,6.0,86,0.00,CLR,BKN,0.00,WeatherDisplay:10.37,2013-01-07 11:12:00,
2013-01-07 06:22:00,28.9,25.6,30.06,WNW,290,5.0,5.0,87,0.00,CLR,BKN,0.00,WeatherDisplay:10.37,2013-01-07 11:22:00,
2013-01-07 06:27:00,29.1,25.7,30.06,WNW,295,5.0,5.0,87,0.00,CLR,BKN,0.00,WeatherDisplay:10.37,2013-01-07 11:27:00,
2013-01-07 06:32:00,29.3,25.6,30.06,WNW,295,5.0,5.0,86,0.00,CLR,BKN,0.00,WeatherDisplay:10.37,2013-01-07 11:32:00,
2013-01-07 06:42:00,29.7,25.7,30.06,WNW,295,5.0,5.0,85,0.00,CLR,BKN,0.00,WeatherDisplay:10.37,2013-01-07 11:42:00,
2013-01-07 06:52:00,29.5,25.5,30.06,NW,315,6.0,8.0,85,0.00,CLR,BKN,0.00,WeatherDisplay:10.37,2013-01-07 11:52:00,
2013-01-07 06:57:00,29.3,25.1,30.06,NW,317,7.0,8.0,84,0.00,CLR,BKN,0.00,WeatherDisplay:10.37,2013-01-07 11:57:00,
2013-01-07 07:02:00,29.3,25.1,30.06,NW,313,7.0,8.0,84,0.00,CLR,BKN,0.00,WeatherDisplay:10.37,2013-01-07 12:02:00,
2013-01-07 07:07:00,28.9,23.8,30.08,WNW,300,8.0,8.0,81,0.00,CLR,BKN,0.00,WeatherDisplay:10.37,2013-01-07 12:07:00,
2013-01-07 07:17:00,28.6,23.5,30.08,WNW,300,8.0,8.0,81,0.00,CLR,BKN,0.00,WeatherDisplay:10.37,2013-01-07 12:17:00,
2013-01-07 07:22:00,28.2,23.1,30.08,NW,304,8.0,8.0,81,0.00,CLR,BKN,0.00,WeatherDisplay:10.37,2013-01-07 12:22:00,
2013-01-07 07:27:00,28.0,23.0,30.08,NW,305,8.0,8.0,81,0.00,CLR,BKN,0.00,WeatherDisplay:10.37,2013-01-07 12:27:00,
2013-01-07 07:37:00,27.7,22.9,30.11,NW,305,7.0,7.0,82,0.00,CLR,BKN,0.00,WeatherDisplay:10.37,2013-01-07 12:37:00,
2013-01-07 07:42:00,27.7,22.9,30.11,NW,305,7.0,7.0,82,0.00,CLR,BKN,0.00,WeatherDisplay:10.37,2013-01-07 12:42:00,
2013-01-07 07:47:00,27.7,22.6,30.11,NW,305,7.0,7.0,81,0.00,CLR,BKN,0.00,WeatherDisplay:10.37,2013-01-07 12:47:00,
2013-01-07 07:52:00,27.7,22.6,30.11,NW,305,7.0,9.0,81,0.00,CLR,BKN,0.00,WeatherDisplay:10.37,2013-01-07 12:52:00,
2013-01-07 08:02:00,28.2,23.1,30.11,NW,310,7.0,7.0,81,0.00,CLR,BKN,0.00,WeatherDisplay:10.37,2013-01-07 13:02:00,
2013-01-07 08:12:00,28.9,22.9,30.11,NW,305,6.0,7.0,78,0.00,CLR,BKN,0.00,WeatherDisplay:10.37,2013-01-07 13:12:00,
2013-01-07 08:17:00,28.9,22.9,30.11,NW,305,6.0,6.0,78,0.00,CLR,BKN,0.00,WeatherDisplay:10.37,2013-01-07 13:17:00,
2013-01-07 08:22:00,28.9,22.6,30.11,NW,305,6.0,6.0,77,0.00,CLR,BKN,0.00,WeatherDisplay:10.37,2013-01-07 13:22:00,
2013-01-07 08:26:00,28.9,22.6,30.14,NW,305,6.0,6.0,77,0.00,CLR,BKN,0.00,WeatherDisplay:10.37,2013-01-07 13:26:00,
2013-01-07 08:31:00,29.7,23.0,30.14,NW,305,5.0,5.0,76,0.00,CLR,BKN,0.00,WeatherDisplay:10.37,2013-01-07 13:31:00,
2013-01-07 08:36:00,30.0,22.4,30.14,NW,305,5.0,5.0,73,0.00,CLR,BKN,0.00,WeatherDisplay:10.37,2013-01-07 13:36:00,
2013-01-07 08:46:00,30.7,23.1,30.14,NW,305,5.0,5.0,73,0.00,CLR,BKN,0.00,WeatherDisplay:10.37,2013-01-07 13:46:00,
2013-01-07 08:51:00,31.6,23.3,30.14,NW,305,5.0,5.0,71,0.00,CLR,BKN,0.00,WeatherDisplay:10.37,2013-01-07 13:51:00,
2013-01-07 08:56:00,32.5,24.2,30.14,NW,305,5.0,5.0,71,0.00,CLR,BKN,0.00,WeatherDisplay:10.37,2013-01-07 13:56:00,
2013-01-07 09:01:00,33.1,22.6,30.17,NW,305,5.0,5.0,65,0.00,CLR,BKN,0.00,WeatherDisplay:10.37,2013-01-07 14:01:00,
2013-01-07 09:11:00,33.4,23.7,30.17,NW,305,5.0,5.0,67,0.00,CLR,BKN,0.00,WeatherDisplay:10.37,2013-01-07 14:11:00,
2013-01-07 09:21:00,33.4,21.4,30.17,NW,305,5.0,5.0,61,0.00,CLR,BKN,0.00,WeatherDisplay:10.37,2013-01-07 14:21:00,
2013-01-07 09:26:00,33.4,21.8,30.17,NW,305,5.0,5.0,62,0.00,CLR,BKN,0.00,WeatherDisplay:10.37,2013-01-07 14:26:00,
2013-01-07 09:31:00,32.9,20.9,30.20,NW,305,5.0,5.0,61,0.00,CLR,BKN,0.00,WeatherDisplay:10.37,2013-01-07 14:31:00,
2013-01-07 09:36:00,32.9,21.3,30.20,NW,305,5.0,5.0,62,0.00,CLR,BKN,0.00,WeatherDisplay:10.37,2013-01-07 14:36:00,
2013-01-07 09:41:00,33.3,21.3,30.20,NW,305,5.0,5.0,61,0.00,CLR,BKN,0.00,WeatherDisplay:10.37,2013-01-07 14:41:00,
2013-01-07 09:46:00,32.7,20.0,30.20,NW,305,5.0,5.0,59,0.00,CLR,BKN,0.00,WeatherDisplay:10.37,2013-01-07 14:46:00,
2013-01-07 09:51:00,32.9,20.9,30.20,NW,305,5.0,5.0,61,0.00,CLR,BKN,0.00,WeatherDisplay:10.37,2013-01-07 14:51:00,
2013-01-07 09:56:00,32.2,20.2,30.20,NW,305,5.0,5.0,61,0.00,CLR,BKN,0.00,WeatherDisplay:10.37,2013-01-07 14:56:00,
2013-01-07 10:01:00,32.2,20.2,30.20,NW,305,5.0,5.0,61,0.00,CLR,BKN,0.00,WeatherDisplay:10.37,2013-01-07 15:01:00,
2013-01-07 10:06:00,32.5,19.8,30.20,NW,305,5.0,5.0,59,0.00,CLR,BKN,0.00,WeatherDisplay:10.37,2013-01-07 15:06:00,
2013-01-07 10:12:00,32.5,19.8,30.20,NW,305,5.0,5.0,59,0.00,CLR,BKN,0.00,WeatherDisplay:10.37,2013-01-07 15:12:00,
2013-01-07 10:21:00,32.9,19.7,30.20,NW,305,5.0,5.0,58,0.00,CLR,BKN,0.00,WeatherDisplay:10.37,2013-01-07 15:21:00,
2013-01-07 10:26:00,33.4,20.6,30.20,NW,305,5.0,5.0,59,0.00,CLR,BKN,0.00,WeatherDisplay:10.37,2013-01-07 15:26:00,
2013-01-07 10:36:00,33.8,18.9,30.23,NW,305,5.0,5.0,54,0.00,CLR,BKN,0.00,WeatherDisplay:10.37,2013-01-07 15:36:00,
2013-01-07 10:41:00,33.6,19.6,30.23,NW,305,5.0,5.0,56,0.00,CLR,BKN,0.00,WeatherDisplay:10.37,2013-01-07 15:41:00,
2013-01-07 10:46:00,34.3,19.8,30.23,NW,305,5.0,5.0,55,0.00,CLR,BKN,0.00,WeatherDisplay:10.37,2013-01-07 15:46:00,
2013-01-07 10:51:00,34.9,19.9,30.23,NW,305,5.0,5.0,54,0.00,CLR,BKN,0.00,WeatherDisplay:10.37,2013-01-07 15:51:00,
2013-01-07 11:01:00,34.9,19.5,30.23,NW,305,5.0,5.0,53,0.00,CLR,BKN,0.00,WeatherDisplay:10.37,2013-01-07 16:01:00,
2013-01-07 11:06:00,34.2,18.8,30.23,NW,305,5.0,5.0,53,0.00,CLR,BKN,0.00,WeatherDisplay:10.37,2013-01-07 16:06:00,
2013-01-07 11:11:00,34.3,19.4,30.23,NW,305,5.0,5.0,54,0.00,CLR,BKN,0.00,WeatherDisplay:10.37,2013-01-07 16:11:00,
2013-01-07 11:16:00,34.3,18.5,30.23,NW,305,5.0,5.0,52,0.00,CLR,BKN,0.00,WeatherDisplay:10.37,2013-01-07 16:16:00,
2013-01-07 11:21:00,34.0,18.2,30.23,NW,305,5.0,5.0,52,0.00,CLR,BKN,0.00,WeatherDisplay:10.37,2013-01-07 16:21:00,
2013-01-07 11:26:00,34.2,18.8,30.23,NW,305,5.0,5.0,53,0.00,CLR,BKN,0.00,WeatherDisplay:10.37,2013-01-07 16:26:00,
2013-01-07 11:31:00,33.6,17.8,30.23,NW,305,5.0,5.0,52,0.00,CLR,BKN,0.00,WeatherDisplay:10.37,2013-01-07 16:31:00,
2013-01-07 11:36:00,34.2,18.8,30.23,NW,305,5.0,5.0,53,0.00,CLR,BKN,0.00,WeatherDisplay:10.37,2013-01-07 16:36:00,
2013-01-07 11:41:00,34.2,18.3,30.23,NW,305,5.0,5.0,52,0.00,CLR,BKN,0.00,WeatherDisplay:10.37,2013-01-07 16:41:00,
2013-01-07 11:47:00,34.5,18.7,30.23,NW,305,5.0,5.0,52,0.00,CLR,BKN,0.00,WeatherDisplay:10.37,2013-01-07 16:47:00,
2013-01-07 11:52:00,34.5,18.7,30.23,NW,305,5.0,5.0,52,0.00,CLR,BKN,0.00,WeatherDisplay:10.37,2013-01-07 16:52:00,
2013-01-07 11:57:00,34.5,18.7,30.23,NW,305,5.0,5.0,52,0.00,CLR,BKN,0.00,WeatherDisplay:10.37,2013-01-07 16:57:00,
2013-01-07 12:02:00,34.5,18.7,30.23,NW,305,5.0,5.0,52,0.00,CLR,BKN,0.00,WeatherDisplay:10.37,2013-01-07 17:02:00,
2013-01-07 12:07:00,34.5,17.3,30.23,NW,305,5.0,5.0,49,0.00,CLR,BKN,0.00,WeatherDisplay:10.37,2013-01-07 17:07:00,
2013-01-07 12:12:00,34.3,17.6,30.23,NW,305,5.0,5.0,50,0.00,CLR,BKN,0.00,WeatherDisplay:10.37,2013-01-07 17:12:00,
2013-01-07 12:22:00,36.5,18.6,30.23,WNW,295,5.0,8.0,48,0.00,CLR,BKN,0.00,WeatherDisplay:10.37,2013-01-07 17:22:00,
2013-01-07 12:27:00,36.3,18.0,30.23,WNW,295,5.0,5.0,47,0.00,CLR,BKN,0.00,WeatherDisplay:10.37,2013-01-07 17:27:00,
2013-01-07 12:32:00,36.0,17.7,30.23,WNW,295,5.0,5.0,47,0.00,CLR,BKN,0.00,WeatherDisplay:10.37,2013-01-07 17:32:00,
2013-01-07 12:42:00,35.6,16.8,30.23,WNW,295,5.0,5.0,46,0.00,CLR,BKN,0.00,WeatherDisplay:10.37,2013-01-07 17:42:00,
2013-01-07 12:47:00,34.9,16.7,30.23,WNW,295,5.0,5.0,47,0.00,CLR,BKN,0.00,WeatherDisplay:10.37,2013-01-07 17:47:00,
2013-01-07 12:52:00,34.7,17.0,30.23,WNW,295,5.0,5.0,48,0.00,CLR,BKN,0.00,WeatherDisplay:10.37,2013-01-07 17:52:00,
2013-01-07 12:57:00,35.1,17.3,30.23,WNW,295,5.0,5.0,48,0.00,CLR,BKN,0.00,WeatherDisplay:10.37,2013-01-07 17:57:00,
2013-01-07 13:02:00,35.6,17.8,30.23,WNW,295,5.0,5.0,48,0.00,CLR,BKN,0.00,WeatherDisplay:10.37,2013-01-07 18:02:00,
2013-01-07 13:07:00,36.1,16.8,30.23,WNW,295,5.0,5.0,45,0.00,CLR,BKN,0.00,WeatherDisplay:10.37,2013-01-07 18:07:00,
2013-01-07 13:12:00,35.6,15.8,30.23,WNW,295,5.0,5.0,44,0.00,CLR,BKN,0.00,WeatherDisplay:10.37,2013-01-07 18:12:00,
2013-01-07 13:22:00,34.7,16.0,30.23,WNW,295,5.0,6.0,46,0.00,CLR,BKN,0.00,WeatherDisplay:10.37,2013-01-07 18:22:00,
2013-01-07 13:27:00,34.7,14.5,30.23,WNW,295,5.0,6.0,43,0.00,CLR,BKN,0.00,WeatherDisplay:10.37,2013-01-07 18:27:00,
2013-01-07 13:32:00,34.7,16.0,30.23,WNW,295,5.0,6.0,46,0.00,CLR,BKN,0.00,WeatherDisplay:10.37,2013-01-07 18:32:00,
2013-01-07 13:37:00,34.0,14.3,30.23,WNW,295,6.0,6.0,44,0.00,CLR,BKN,0.00,WeatherDisplay:10.37,2013-01-07 18:37:00,
2013-01-07 13:42:00,34.0,14.8,30.26,WNW,295,6.0,6.0,45,0.00,CLR,BKN,0.00,WeatherDisplay:10.37,2013-01-07 18:42:00,
2013-01-07 13:47:00,34.0,14.8,30.26,WNW,295,6.0,6.0,45,0.00,CLR,BKN,0.00,WeatherDisplay:10.37,2013-01-07 18:47:00,
2013-01-07 13:52:00,33.4,12.8,30.26,WNW,295,6.0,6.0,42,0.00,CLR,BKN,0.00,WeatherDisplay:10.37,2013-01-07 18:52:00,
2013-01-07 13:57:00,32.9,12.8,30.26,WNW,295,6.0,6.0,43,0.00,CLR,BKN,0.00,WeatherDisplay:10.37,2013-01-07 18:57:00,
2013-01-07 14:02:00,32.9,13.9,30.26,WNW,295,6.0,6.0,45,0.00,CLR,BKN,0.00,WeatherDisplay:10.37,2013-01-07 19:02:00,
2013-01-07 14:07:00,32.7,13.7,30.26,WNW,295,6.0,6.0,45,0.00,CLR,BKN,0.00,WeatherDisplay:10.37,2013-01-07 19:07:00,
2013-01-07 14:12:00,32.9,13.9,30.26,WNW,295,6.0,6.0,45,0.00,CLR,BKN,0.00,WeatherDisplay:10.37,2013-01-07 19:12:00,
2013-01-07 14:17:00,32.2,12.2,30.26,WNW,295,6.0,6.0,43,0.00,CLR,BKN,0.00,WeatherDisplay:10.37,2013-01-07 19:17:00,
2013-01-07 14:27:00,32.0,14.0,30.26,WNW,295,6.0,6.0,47,0.00,CLR,BKN,0.00,WeatherDisplay:10.37,2013-01-07 19:27:00,
2013-01-07 14:36:00,32.0,14.0,30.26,WNW,295,6.0,6.0,47,0.00,CLR,BKN,0.00,WeatherDisplay:10.37,2013-01-07 19:36:00,
2013-01-07 14:38:00,18.7,13.8,30.23,SW,224,1.0,1.0,81,0.00,CLR,BKN,0.00,WeatherDisplay:10.37,2013-01-07 19:38:00,
2013-01-07 14:41:00,32.0,14.0,30.26,WNW,295,6.0,6.0,47,0.00,CLR,BKN,0.00,WeatherDisplay:10.37,2013-01-07 19:41:00,
2013-01-07 14:52:00,31.6,12.7,30.26,WNW,295,6.0,6.0,45,0.00,CLR,BKN,0.00,WeatherDisplay:10.37,2013-01-07 19:52:00,
2013-01-07 15:01:00,31.8,13.4,30.26,WNW,295,6.0,6.0,46,0.00,CLR,BKN,0.00,WeatherDisplay:10.37,2013-01-07 20:01:00,
2013-01-07 15:06:00,31.5,12.5,30.26,WNW,295,6.0,6.0,45,0.00,CLR,BKN,0.00,WeatherDisplay:10.37,2013-01-07 20:06:00,
2013-01-07 15:11:00,31.3,11.9,30.26,WNW,295,6.0,6.0,44,0.00,CLR,BKN,0.00,WeatherDisplay:10.37,2013-01-07 20:11:00,
2013-01-07 15:16:00,31.1,12.7,30.26,WNW,295,6.0,6.0,46,0.00,CLR,BKN,0.00,WeatherDisplay:10.37,2013-01-07 20:16:00,
2013-01-07 15:21:00,30.4,13.0,30.26,WNW,295,6.0,6.0,48,0.00,CLR,BKN,0.00,WeatherDisplay:10.37,2013-01-07 20:21:00,
2013-01-07 15:26:00,30.4,12.5,30.26,WNW,295,6.0,6.0,47,0.00,CLR,BKN,0.00,WeatherDisplay:10.37,2013-01-07 20:26:00,
2013-01-07 15:36:00,30.4,12.5,30.26,WNW,293,6.0,6.0,47,0.00,CLR,BKN,0.00,WeatherDisplay:10.37,2013-01-07 20:36:00,
2013-01-07 15:41:00,30.2,12.8,30.26,WNW,292,5.0,0.0,48,0.00,CLR,BKN,0.00,WeatherDisplay:10.37,2013-01-07 20:41:00,
2013-01-07 15:51:00,29.7,12.3,30.26,WNW,290,1.0,0.0,48,0.00,CLR,BKN,0.00,WeatherDisplay:10.37,2013-01-07 20:51:00,
2013-01-07 15:56:00,29.7,12.3,30.29,WNW,290,0.0,0.0,48,0.00,CLR,BKN,0.00,WeatherDisplay:10.37,2013-01-07 20:56:00,
2013-01-07 16:06:00,28.9,12.1,30.29,NW,326,0.0,2.0,49,0.00,CLR,BKN,0.00,WeatherDisplay:10.37,2013-01-07 21:06:00,
2013-01-07 16:16:00,28.4,12.6,30.29,NW,320,1.0,3.0,51,0.00,CLR,BKN,0.00,WeatherDisplay:10.37,2013-01-07 21:16:00,
2013-01-07 16:21:00,28.0,12.2,30.29,NW,320,2.0,3.0,51,0.00,CLR,BKN,0.00,WeatherDisplay:10.37,2013-01-07 21:21:00,
2013-01-07 16:26:00,27.9,12.1,30.29,NW,320,3.0,3.0,51,0.00,CLR,BKN,0.00,WeatherDisplay:10.37,2013-01-07 21:26:00,
2013-01-07 16:36:00,27.1,11.4,30.29,NW,320,1.0,0.0,51,0.00,CLR,BKN,0.00,WeatherDisplay:10.37,2013-01-07 21:36:00,
2013-01-07 16:46:00,26.6,11.3,30.29,NW,320,0.0,0.0,52,0.00,CLR,BKN,0.00,WeatherDisplay:10.37,2013-01-07 21:46:00,
2013-01-07 16:51:00,26.1,11.2,30.29,NW,320,0.0,0.0,53,0.00,CLR,BKN,0.00,WeatherDisplay:10.37,2013-01-07 21:51:00,
2013-01-07 17:01:00,25.5,10.7,30.29,NW,322,0.0,0.0,53,0.00,CLR,BKN,0.00,WeatherDisplay:10.37,2013-01-07 22:01:00,
2013-01-07 17:06:00,25.2,10.4,30.29,NW,325,0.0,0.0,53,0.00,CLR,BKN,0.00,WeatherDisplay:10.37,2013-01-07 22:06:00,
2013-01-07 17:16:00,24.6,10.3,30.29,NW,325,0.0,0.0,54,0.00,CLR,BKN,0.00,WeatherDisplay:10.37,2013-01-07 22:16:00,
2013-01-07 17:21:00,24.4,10.2,30.29,NW,325,0.0,0.0,54,0.00,CLR,BKN,0.00,WeatherDisplay:10.37,2013-01-07 22:21:00,
2013-01-07 17:31:00,24.1,10.2,30.29,NW,325,0.0,0.0,55,0.00,CLR,BKN,0.00,WeatherDisplay:10.37,2013-01-07 22:31:00,
2013-01-07 17:36:00,23.7,10.3,30.29,NW,325,0.0,0.0,56,0.00,CLR,BKN,0.00,WeatherDisplay:10.37,2013-01-07 22:36:00,
2013-01-07 17:42:00,23.5,10.5,30.29,NW,325,0.0,0.0,57,0.00,CLR,BKN,0.00,WeatherDisplay:10.37,2013-01-07 22:42:00,
2013-01-07 17:52:00,23.2,10.2,30.29,NW,325,0.0,0.0,57,0.00,CLR,BKN,0.00,WeatherDisplay:10.37,2013-01-07 22:52:00,
2013-01-07 18:02:00,23.2,10.6,30.32,NW,325,0.0,0.0,58,0.00,CLR,BKN,0.00,WeatherDisplay:10.37,2013-01-07 23:02:00,
2013-01-07 18:07:00,23.2,10.6,30.32,NW,325,0.0,0.0,58,0.00,CLR,BKN,0.00,WeatherDisplay:10.37,2013-01-07 23:07:00,
2013-01-07 18:17:00,23.4,11.1,30.29,NW,320,0.0,0.0,59,0.00,CLR,BKN,0.00,WeatherDisplay:10.37,2013-01-07 23:17:00,
2013-01-07 18:22:00,23.2,11.0,30.29,NW,320,0.0,0.0,59,0.00,CLR,BKN,0.00,WeatherDisplay:10.37,2013-01-07 23:22:00,
2013-01-07 18:32:00,23.0,11.2,30.29,NW,320,0.0,0.0,60,0.00,CLR,BKN,0.00,WeatherDisplay:10.37,2013-01-07 23:32:00,
2013-01-07 18:37:00,23.0,11.5,30.29,NW,320,0.0,0.0,61,0.00,CLR,BKN,0.00,WeatherDisplay:10.37,2013-01-07 23:37:00,
2013-01-07 18:47:00,22.6,11.2,30.29,NW,320,0.0,0.0,61,0.00,CLR,BKN,0.00,WeatherDisplay:10.37,2013-01-07 23:47:00,
2013-01-07 18:52:00,22.5,11.8,30.29,NW,320,0.0,0.0,63,0.00,CLR,BKN,0.00,WeatherDisplay:10.37,2013-01-07 23:52:00,
2013-01-07 19:02:00,21.2,10.9,30.29,NW,320,0.0,0.0,64,0.00,CLR,BKN,0.00,WeatherDisplay:10.37,2013-01-08 00:02:00,
2013-01-07 19:12:00,20.8,10.2,30.29,NW,320,0.0,0.0,63,0.00,CLR,BKN,0.00,WeatherDisplay:10.37,2013-01-08 00:12:00,
2013-01-07 19:22:00,20.3,10.4,30.29,NW,324,0.0,0.0,65,0.00,CLR,BKN,0.00,WeatherDisplay:10.37,2013-01-08 00:22:00,
2013-01-07 19:32:00,20.5,11.3,30.29,NW,325,0.0,0.0,67,0.00,CLR,BKN,0.00,WeatherDisplay:10.37,2013-01-08 00:32:00,
2013-01-07 19:37:00,20.5,10.9,30.29,NW,325,0.0,0.0,66,0.00,CLR,BKN,0.00,WeatherDisplay:10.37,2013-01-08 00:37:00,
2013-01-07 19:47:00,20.5,11.3,30.29,NW,325,0.0,0.0,67,0.00,CLR,BKN,0.00,WeatherDisplay:10.37,2013-01-08 00:47:00,
2013-01-07 19:52:00,20.5,11.3,30.29,NW,325,0.0,0.0,67,0.00,CLR,BKN,0.00,WeatherDisplay:10.37,2013-01-08 00:52:00,
2013-01-07 20:02:00,20.5,11.9,30.29,NW,325,0.0,0.0,69,0.00,CLR,BKN,0.00,WeatherDisplay:10.37,2013-01-08 01:02:00,
2013-01-07 20:07:00,20.5,11.9,30.29,WNW,290,0.0,0.0,69,0.00,CLR,BKN,0.00,WeatherDisplay:10.37,2013-01-08 01:07:00,
2013-01-07 20:16:00,20.3,11.7,30.29,SW,230,0.0,0.0,69,0.00,CLR,BKN,0.00,WeatherDisplay:10.37,2013-01-08 01:16:00,
2013-01-07 20:22:00,20.1,11.6,30.29,SW,230,0.0,0.0,69,0.00,CLR,BKN,0.00,WeatherDisplay:10.37,2013-01-08 01:22:00,
2013-01-07 20:31:00,20.5,11.9,30.29,SW,224,0.0,0.0,69,0.00,CLR,BKN,0.00,WeatherDisplay:10.37,2013-01-08 01:31:00,
2013-01-07 20:37:00,20.7,12.1,30.29,SW,215,0.0,0.0,69,0.00,CLR,BKN,0.00,WeatherDisplay:10.37,2013-01-08 01:37:00,
2013-01-07 20:46:00,20.8,12.3,30.29,SW,215,0.0,0.0,69,0.00,CLR,BKN,0.00,WeatherDisplay:10.37,2013-01-08 01:46:00,
2013-01-07 20:51:00,20.8,12.3,30.29,SW,215,0.0,0.0,69,0.00,CLR,BKN,0.00,WeatherDisplay:10.37,2013-01-08 01:51:00,
2013-01-07 21:01:00,20.3,12.4,30.29,SW,215,0.0,0.0,71,0.00,CLR,BKN,0.00,WeatherDisplay:10.37,2013-01-08 02:01:00,
2013-01-07 21:06:00,19.8,11.6,30.29,SW,215,0.0,0.0,70,0.00,CLR,BKN,0.00,WeatherDisplay:10.37,2013-01-08 02:06:00,
2013-01-07 21:16:00,19.0,10.9,30.29,SW,215,0.0,0.0,70,0.00,CLR,BKN,0.00,WeatherDisplay:10.37,2013-01-08 02:16:00,
2013-01-07 21:21:00,18.9,11.0,30.29,SW,215,0.0,0.0,71,0.00,CLR,BKN,0.00,WeatherDisplay:10.37,2013-01-08 02:21:00,
2013-01-07 21:31:00,18.7,11.1,30.29,SW,215,0.0,0.0,72,0.00,CLR,BKN,0.00,WeatherDisplay:10.37,2013-01-08 02:31:00,
2013-01-07 21:36:00,18.7,11.1,30.29,SW,215,0.0,0.0,72,0.00,CLR,BKN,0.00,WeatherDisplay:10.37,2013-01-08 02:36:00,
2013-01-07 21:46:00,18.3,11.4,30.29,SW,215,0.0,0.0,74,0.00,CLR,BKN,0.00,WeatherDisplay:10.37,2013-01-08 02:46:00,
2013-01-07 21:51:00,18.5,11.3,30.29,SW,215,0.0,0.0,73,0.00,CLR,BKN,0.00,WeatherDisplay:10.37,2013-01-08 02:51:00,
2013-01-07 21:57:00,18.5,11.3,30.29,SW,215,0.0,0.0,73,0.00,CLR,BKN,0.00,WeatherDisplay:10.37,2013-01-08 02:57:00,
2013-01-07 22:06:00,18.7,12.1,30.29,SW,215,0.0,0.0,75,0.00,CLR,BKN,0.00,WeatherDisplay:10.37,2013-01-08 03:06:00,
2013-01-07 22:16:00,18.7,12.1,30.29,SW,215,0.0,0.0,75,0.00,CLR,BKN,0.00,WeatherDisplay:10.37,2013-01-08 03:16:00,
2013-01-07 22:21:00,18.1,11.5,30.29,SW,215,0.0,0.0,75,0.00,CLR,BKN,0.00,WeatherDisplay:10.37,2013-01-08 03:21:00,
2013-01-07 22:31:00,17.8,10.9,30.29,SW,215,0.0,0.0,74,0.00,CLR,BKN,0.00,WeatherDisplay:10.37,2013-01-08 03:31:00,
2013-01-07 22:36:00,17.6,10.7,30.29,SW,215,0.0,0.0,74,0.00,CLR,BKN,0.00,WeatherDisplay:10.37,2013-01-08 03:36:00,
2013-01-07 22:46:00,17.8,11.2,30.29,SW,215,0.0,0.0,75,0.00,CLR,BKN,0.00,WeatherDisplay:10.37,2013-01-08 03:46:00,
2013-01-07 22:51:00,18.0,11.7,30.26,SW,215,0.0,0.0,76,0.00,CLR,BKN,0.00,WeatherDisplay:10.37,2013-01-08 03:51:00,
2013-01-07 23:01:00,17.8,11.5,30.26,SW,224,0.0,0.0,76,0.00,CLR,BKN,0.00,WeatherDisplay:10.37,2013-01-08 04:01:00,
2013-01-07 23:06:00,17.8,12.1,30.26,SW,234,0.0,0.0,78,0.00,CLR,BKN,0.00,WeatherDisplay:10.37,2013-01-08 04:06:00,
2013-01-07 23:16:00,18.1,12.4,30.26,SW,214,0.0,0.0,78,0.00,CLR,BKN,0.00,WeatherDisplay:10.37,2013-01-08 04:16:00,
2013-01-07 23:21:00,18.3,12.9,30.26,SW,219,0.0,0.0,79,0.00,CLR,BKN,0.00,WeatherDisplay:10.37,2013-01-08 04:21:00,
2013-01-07 23:31:00,18.3,12.9,30.26,SW,234,0.0,2.0,79,0.00,CLR,BKN,0.00,WeatherDisplay:10.37,2013-01-08 04:31:00,
2013-01-07 23:36:00,18.3,12.9,30.26,SW,236,1.0,2.0,79,0.00,CLR,BKN,0.00,WeatherDisplay:10.37,2013-01-08 04:36:00,
2013-01-07 23:42:00,18.3,12.9,30.26,SW,230,1.0,3.0,79,0.00,CLR,BKN,0.00,WeatherDisplay:10.37,2013-01-08 04:42:00,
2013-01-07 23:52:00,18.5,13.4,30.26,SW,218,1.0,4.0,80,0.00,CLR,BKN,0.00,WeatherDisplay:10.37,2013-01-08 04:52:00,